Information Last Ob Photographs Calibration Meteogram Network Table Neighbors Monthly Summaries Observation History Wind Roses Custom Wind Roses Data Calendar Satellite Cloud Product Download

24 February 2024 Observation History, [HPT] Hampton, timezone: America/Chicago

Select Date: Time Order:

Show METARs   Show High Frequency MADIS

Previous Day
Time Wind
(mph)
Vis.
(mi.)
Sky Cond.
(100s ft)
Present Wx Temperature (ºF) Relative
Humidity
Pressure Snow
Depth
(in)
Precipitation (in.)
Air Dwpt Feels Like 6 hour altimeter
(in.)
sea level
(mb)
1 hr 3 hr 6 hr
Max.Min.
12:15 AMN 510 CLR
231417 68% 30.020
KHPT 240615Z AUTO 01004KT 10SM CLR M05/M10 A3002 RMK AO2
12:35 AMN 510 CLR
231417 68% 30.020
KHPT 240635Z AUTO 36004KT 10SM CLR M05/M10 A3002 RMK AO2
12:55 AMN 510 CLR
231417 68% 30.020
KHPT 240655Z AUTO 35004KT 10SM CLR M05/M10 A3002 RMK AO2
1:15 AMCalm10 CLR
211421 73% 30.020
KHPT 240715Z AUTO 00000KT 10SM CLR M06/M10 A3002 RMK AO2
1:35 AMN 310 CLR
211216 68% 30.030
KHPT 240735Z AUTO 36003KT 10SM CLR M06/M11 A3003 RMK AO2
1:55 AMNNW 310 CLR
181012 73% 30.030
KHPT 240755Z AUTO 34003KT 10SM CLR M08/M12 A3003 RMK AO2
2:15 AMN 510 CLR
211215 68% 30.030
KHPT 240815Z AUTO 35004KT 10SM CLR M06/M11 A3003 RMK AO2
2:35 AMN 510 CLR
191213 73% 30.040
KHPT 240835Z AUTO 36004KT 10SM CLR M07/M11 A3004 RMK AO2
2:55 AMNNE 510 CLR
211015 63% 30.030
KHPT 240855Z AUTO 02004KT 10SM CLR M06/M12 A3003 RMK AO2
3:15 AMNNE 610 CLR
19911 62% 30.030
KHPT 240915Z AUTO 03005KT 10SM CLR M07/M13 A3003 RMK AO2
3:35 AMNNE 310 CLR
21916 58% 30.040
KHPT 240935Z AUTO 02003KT 10SM CLR M06/M13 A3004 RMK AO2
3:55 AMN 310 CLR
19914 62% 30.030
KHPT 240955Z AUTO 35003KT 10SM CLR M07/M13 A3003 RMK AO2
4:15 AMNE 510 CLR
18711 62% 30.030
KHPT 241015Z AUTO 05004KT 10SM CLR M08/M14 A3003 RMK AO2
4:35 AMCalm10 CLR
18918 67% 30.030
KHPT 241035Z AUTO 00000KT 10SM CLR M08/M13 A3003 RMK AO2
4:55 AMCalm10 CLR
18918 67% 30.040
KHPT 241055Z AUTO 00000KT 10SM CLR M08/M13 A3004 RMK AO2
5:15 AME 310 CLR
18912 67% 30.030
KHPT 241115Z AUTO 10003KT 10SM CLR M08/M13 A3003 RMK AO2
5:35 AMCalm10 CLR
12512 72% 30.050
KHPT 241135Z AUTO 00000KT 10SM CLR M11/M15 A3005 RMK AO2
5:55 AMCalm10 CLR
14714 73% 30.050
KHPT 241155Z AUTO 00000KT 10SM CLR M10/M14 A3005 RMK AO2
6:15 AMCalm10 CLR
14514 67% 30.050
KHPT 241215Z AUTO 00000KT 10SM CLR M10/M15 A3005 RMK AO2
6:35 AMCalm10 CLR
12512 72% 30.040
KHPT 241235Z AUTO 00000KT 10SM CLR M11/M15 A3004 RMK AO2
6:55 AMCalm10 CLR
14514 67% 30.040
KHPT 241255Z AUTO 00000KT 10SM CLR M10/M15 A3004 RMK AO2
7:15 AMCalm10 CLR
12512 72% 30.040
KHPT 241315Z AUTO 00000KT 10SM CLR M11/M15 A3004 RMK AO2
7:35 AMSSE 510 CLR
1679 67% 30.040
KHPT 241335Z AUTO 15004KT 10SM CLR M09/M14 A3004 RMK AO2
7:55 AMCalm10 CLR
191019 68% 30.050
KHPT 241355Z AUTO 00000KT 10SM CLR M07/M12 A3005 RMK AO2
8:15 AMSSE 510 CLR
231017 58% 30.050
KHPT 241415Z AUTO 16004KT 10SM CLR M05/M12 A3005 RMK AO2
8:35 AMS 610 CLR
251218 58% 30.040
KHPT 241435Z AUTO 17005KT 10SM CLR M04/M11 A3004 RMK AO2
8:55 AMSSE 610 CLR
271220 54% 30.040
KHPT 241455Z AUTO 16005KT 10SM CLR M03/M11 A3004 RMK AO2
9:15 AMSSW 810 CLR
281220 50% 30.040
KHPT 241515Z AUTO 19007KT 10SM CLR M02/M11 A3004 RMK AO2
9:35 AMS 810 CLR
301223 47% 30.030
KHPT 241535Z AUTO 18007KT 10SM CLR M01/M11 A3003 RMK AO2
9:55 AMS 1010 CLR
321224 43% 30.020
KHPT 241555Z AUTO 17009KT 10SM CLR 00/M11 A3002 RMK AO2
10:15 AMSSW 14G 1810 CLR
341224 40% 30.020
KHPT 241615Z AUTO 20012G16KT 10SM CLR 01/M11 A3002 RMK AO2
10:35 AMSSW 13G 1810 CLR
341425 44% 30.010
KHPT 241635Z AUTO 20011G16KT 10SM CLR 01/M10 A3001 RMK AO2
10:55 AMSSW 1410 CLR
361427 41% 30.010
KHPT 241655Z AUTO 20012KT 10SM CLR 02/M10 A3001 RMK AO2
11:15 AMSSW 15G 2210 CLR
361626 44% 30.010
KHPT 241715Z AUTO 20013G19KT 10SM CLR 02/M09 A3001 RMK AO2
11:35 AMSSW 14G 1810 CLR
371629 41% 29.990
KHPT 241735Z AUTO 20012G16KT 10SM CLR 03/M09 A2999 RMK AO2
11:55 AMSSW 13G 1710 CLR
411834 38% 29.970
KHPT 241755Z AUTO 20011G15KT 10SM CLR 05/M08 A2997 RMK AO2
12:15 PMS 14G 2210 CLR
411633 36% 29.950
KHPT 241815Z AUTO 18012G19KT 10SM CLR 05/M09 A2995 RMK AO2
12:35 PMSSW 16G 2210 CLR
431635 33% 29.940
KHPT 241835Z AUTO 19014G19KT 10SM CLR 06/M09 A2994 RMK AO2
12:55 PMSSW 16G 2410 CLR
451837 33% 29.930
KHPT 241855Z AUTO 20014G21KT 10SM CLR 07/M08 A2993 RMK AO2
1:15 PMSSW 16G 2210 CLR
451637 31% 29.910
KHPT 241915Z AUTO 21014G19KT 10SM CLR 07/M09 A2991 RMK AO2
1:35 PMSSW 15G 2310 CLR
431635 33% 29.90
KHPT 241935Z AUTO 19013G20KT 10SM CLR 06/M09 A2990 RMK AO2
1:55 PMSSW 16G 2110 CLR
461840 31% 29.880
KHPT 241955Z AUTO 19014G18KT 10SM CLR 08/M08 A2988 RMK AO2
2:15 PMS 1410 CLR
461840 31% 29.860
KHPT 242015Z AUTO 18012KT 10SM CLR 08/M08 A2986 RMK AO2
2:35 PMSSW 18G 2410 CLR
461839 31% 29.860
KHPT 242035Z AUTO 19016G21KT 10SM CLR 08/M08 A2986 RMK AO2
2:55 PMS 14G 2210 CLR
461840 31% 29.850
KHPT 242055Z AUTO 17012G19KT 10SM CLR 08/M08 A2985 RMK AO2
3:15 PMSSW 16G 2210 CLR
481842 29% 29.850
KHPT 242115Z AUTO 20014G19KT 10SM CLR 09/M08 A2985 RMK AO2
3:35 PMSSW 20G 2410 CLR
461839 31% 29.840
KHPT 242135Z AUTO 20017G21KT 10SM CLR 08/M08 A2984 RMK AO2
3:55 PMSSW 13G 1810 CLR
461941 34% 29.830
KHPT 242155Z AUTO 20011G16KT 10SM CLR 08/M07 A2983 RMK AO2
4:15 PMSSW 18G 2210 CLR
481942 32% 29.830
KHPT 242215Z AUTO 20016G19KT 10SM CLR 09/M07 A2983 RMK AO2
4:35 PMSSW 16G 2410 CLR
481942 32% 29.830
KHPT 242235Z AUTO 20014G21KT 10SM CLR 09/M07 A2983 RMK AO2
4:55 PMSSW 17G 2410 CLR
461939 34% 29.830
KHPT 242255Z AUTO 20015G21KT 10SM CLR 08/M07 A2983 RMK AO2
5:15 PMSSW 1510 CLR
462140 36% 29.830
KHPT 242315Z AUTO 20013KT 10SM CLR 08/M06 A2983 RMK AO2
5:35 PMSSW 1210 CLR
452139 39% 29.820
KHPT 242335Z AUTO 19010KT 10SM CLR 07/M06 A2982 RMK AO2
5:55 PMS 1010 CLR
431937 39% 29.810
KHPT 242355Z AUTO 18009KT 10SM CLR 06/M07 A2981 RMK AO2
6:15 PMS 1210 CLR
432137 42% 29.790
KHPT 250015Z AUTO 18010KT 10SM CLR 06/M06 A2979 RMK AO2
6:35 PMS 1210 CLR
412134 45% 29.790
KHPT 250035Z AUTO 18010KT 10SM CLR 05/M06 A2979 RMK AO2
6:55 PMS 1010 CLR
411935 42% 29.790
KHPT 250055Z AUTO 18009KT 10SM CLR 05/M07 A2979 RMK AO2
7:15 PMS 1010 CLR
412135 45% 29.790
KHPT 250115Z AUTO 18009KT 10SM CLR 05/M06 A2979 RMK AO2
7:35 PMS 1010 CLR
411935 42% 29.790
KHPT 250135Z AUTO 18009KT 10SM CLR 05/M07 A2979 RMK AO2
7:55 PMSSW 1010 CLR
391932 45% 29.790
KHPT 250155Z AUTO 19009KT 10SM CLR 04/M07 A2979 RMK AO2
8:15 PMSSW 1310 CLR
411934 42% 29.780
KHPT 250215Z AUTO 19011KT 10SM CLR 05/M07 A2978 RMK AO2
8:35 PMSSW 1510 CLR
412133 45% 29.780
KHPT 250235Z AUTO 19013KT 10SM CLR 05/M06 A2978 RMK AO2
8:55 PMSSW 1610 CLR
412133 45% 29.780
KHPT 250255Z AUTO 20014KT 10SM CLR 05/M06 A2978 RMK AO2
9:15 PMSSW 1410 CLR
392131 48% 29.770
KHPT 250315Z AUTO 20012KT 10SM CLR 04/M06 A2977 RMK AO2
9:35 PMSSW 1510 CLR
392131 48% 29.770
KHPT 250335Z AUTO 20013KT 10SM CLR 04/M06 A2977 RMK AO2
9:55 PMSSW 15G 2210 CLR
392131 48% 29.760
KHPT 250355Z AUTO 20013G19KT 10SM CLR 04/M06 A2976 RMK AO2
10:15 PMSSW 16G 2210 CLR
372128 52% 29.750
KHPT 250415Z AUTO 20014G19KT 10SM CLR 03/M06 A2975 RMK AO2
10:35 PMSSW 1410 CLR
372129 52% 29.740
KHPT 250435Z AUTO 21012KT 10SM CLR 03/M06 A2974 RMK AO2
10:55 PMSSW 1410 CLR
372129 52% 29.740
KHPT 250455Z AUTO 21012KT 10SM CLR 03/M06 A2974 RMK AO2

The IEM API webservice that provided data to this page. For more details, see documentation.

Data Notes

  • For recent years, this page also optionally shows observations from the MADIS High Frequency METAR dataset. This dataset had a problem with temperatures detailed here.